Time;durP1;ratioP1;P1;durP2;ratioP2;P2;SDS_P1;SDS_P2;PMS_P1;PMS_P2;Temp;Humidity;BMP_temperature;BMP_pressure;BME280_temperature;BME280_humidity;BME280_pressure;Samples;Min_cycle;Max_cycle;Signal;HPM_P1;HPM_P2
2024/03/25 00:00:24;;;;;;;9.82;2.55;;;;;;;;;;4950056;28;20038;-66
2024/03/25 00:02:51;;;;;;;4.32;2.22;;;;;;;;;;4951508;28;20043;-66
2024/03/25 00:05:25;;;;;;;6.70;2.35;;;;;;;;;;4952348;28;20043;-66
2024/03/25 00:07:52;;;;;;;7.30;2.58;;;;;;;;;;4952780;28;20054;-66
2024/03/25 00:10:20;;;;;;;5.53;2.67;;;;;;;;;;4951069;28;20058;-66
2024/03/25 00:12:47;;;;;;;4.10;2.35;;;;;;;;;;4950229;28;20043;-67
2024/03/25 00:15:13;;;;;;;6.10;2.58;;;;;;;;;;4949962;28;20043;-66
2024/03/25 00:17:39;;;;;;;7.53;2.78;;;;;;;;;;4951961;28;20432;-66
2024/03/25 00:20:09;;;;;;;5.13;2.63;;;;;;;;;;4949708;28;20407;-66
2024/03/25 00:22:35;;;;;;;8.23;2.78;;;;;;;;;;4949282;28;20039;-66
2024/03/25 00:25:01;;;;;;;7.35;2.72;;;;;;;;;;4951549;28;20038;-67
2024/03/25 00:27:29;;;;;;;7.20;2.20;;;;;;;;;;4952044;28;20043;-66
2024/03/25 00:29:55;;;;;;;8.15;2.35;;;;;;;;;;4953828;28;20052;-66
2024/03/25 00:32:21;;;;;;;4.55;2.30;;;;;;;;;;4954320;28;20042;-66
2024/03/25 00:34:47;;;;;;;6.45;2.67;;;;;;;;;;4956020;28;20039;-66
2024/03/25 00:37:14;;;;;;;4.60;2.05;;;;;;;;;;4960216;28;20518;-66
2024/03/25 00:39:40;;;;;;;4.05;2.40;;;;;;;;;;4956909;28;20050;-67
2024/03/25 00:42:06;;;;;;;4.85;2.20;;;;;;;;;;4953105;28;20043;-66
2024/03/25 00:44:32;;;;;;;6.95;2.63;;;;;;;;;;4960296;28;20047;-65
2024/03/25 00:46:58;;;;;;;7.13;2.33;;;;;;;;;;4954099;28;20543;-66
2024/03/25 00:49:25;;;;;;;5.03;2.42;;;;;;;;;;4956387;28;20495;-67
2024/03/25 00:51:52;;;;;;;4.68;2.40;;;;;;;;;;4955057;28;20061;-66
2024/03/25 00:54:18;;;;;;;3.55;2.35;;;;;;;;;;4944979;28;20047;-65
2024/03/25 00:56:44;;;;;;;5.65;2.17;;;;;;;;;;4966294;28;20043;-66
2024/03/25 00:59:10;;;;;;;5.80;2.35;;;;;;;;;;4953548;28;20426;-66
2024/03/25 01:01:36;;;;;;;7.43;3.08;;;;;;;;;;4949032;28;20051;-66
2024/03/25 01:04:02;;;;;;;7.38;2.67;;;;;;;;;;4951462;28;20066;-66
2024/03/25 01:06:30;;;;;;;7.40;3.03;;;;;;;;;;4952056;28;20400;-65
2024/03/25 01:08:56;;;;;;;12.30;2.92;;;;;;;;;;4952512;28;20043;-65
2024/03/25 01:11:22;;;;;;;6.53;2.60;;;;;;;;;;4945412;28;20039;-65
2024/03/25 01:13:48;;;;;;;6.20;2.95;;;;;;;;;;4950958;28;20047;-65
2024/03/25 01:16:15;;;;;;;8.07;3.15;;;;;;;;;;4950354;28;20047;-65
2024/03/25 01:18:41;;;;;;;12.05;3.50;;;;;;;;;;4952737;28;20051;-64
2024/03/25 01:21:07;;;;;;;5.40;3.17;;;;;;;;;;4950012;28;20035;-64
2024/03/25 01:23:33;;;;;;;6.85;2.67;;;;;;;;;;4951554;28;20051;-64
2024/03/25 01:25:59;;;;;;;5.75;2.90;;;;;;;;;;4951505;28;20058;-65
2024/03/25 01:28:26;;;;;;;8.93;3.03;;;;;;;;;;4951938;28;20043;-65
2024/03/25 01:30:52;;;;;;;6.88;2.70;;;;;;;;;;4949254;28;20043;-65
2024/03/25 01:33:18;;;;;;;5.00;2.40;;;;;;;;;;4954005;28;20047;-65
2024/03/25 01:35:44;;;;;;;6.07;2.97;;;;;;;;;;4946838;28;20051;-64
2024/03/25 01:38:10;;;;;;;12.82;2.42;;;;;;;;;;4953994;28;20043;-66
2024/03/25 01:40:36;;;;;;;8.70;2.67;;;;;;;;;;4949769;28;20047;-65
2024/03/25 01:43:03;;;;;;;5.20;2.45;;;;;;;;;;4950546;28;20055;-66
2024/03/25 01:45:33;;;;;;;4.78;2.35;;;;;;;;;;4958483;28;20053;-65
2024/03/25 01:48:03;;;;;;;8.48;3.05;;;;;;;;;;4963266;28;20035;-65
2024/03/25 01:50:30;;;;;;;6.80;2.78;;;;;;;;;;4955751;28;20493;-65
2024/03/25 01:52:57;;;;;;;7.70;2.70;;;;;;;;;;4959558;28;20043;-65
2024/03/25 01:55:27;;;;;;;7.47;2.60;;;;;;;;;;4954937;28;20051;-65
2024/03/25 01:57:53;;;;;;;5.55;2.78;;;;;;;;;;4962321;28;20034;-65
2024/03/25 02:00:20;;;;;;;4.85;2.42;;;;;;;;;;4961483;28;20066;-65
2024/03/25 02:02:50;;;;;;;9.32;2.92;;;;;;;;;;4954696;28;20047;-65
2024/03/25 02:05:16;;;;;;;;;;;;;;;;;;4952414;28;20031;-65
2024/03/25 02:07:43;;;;;;;7.32;2.55;;;;;;;;;;4955884;28;19918;-65
2024/03/25 02:10:10;;;;;;;6.47;2.78;;;;;;;;;;4954839;28;20042;-65
2024/03/25 02:12:37;;;;;;;5.53;2.67;;;;;;;;;;4955518;28;20054;-65
2024/03/25 02:15:05;;;;;;;6.20;2.97;;;;;;;;;;4955207;28;20043;-65
2024/03/25 02:17:31;;;;;;;10.40;2.80;;;;;;;;;;4953240;28;20050;-65
2024/03/25 02:19:57;;;;;;;5.78;2.75;;;;;;;;;;4955443;28;20506;-65
2024/03/25 02:22:23;;;;;;;6.10;2.58;;;;;;;;;;4954136;28;20054;-65
2024/03/25 02:24:53;;;;;;;5.40;2.60;;;;;;;;;;4954702;28;20047;-65
2024/03/25 02:27:19;;;;;;;6.18;2.55;;;;;;;;;;4953259;28;20384;-66
2024/03/25 02:29:45;;;;;;;5.00;2.58;;;;;;;;;;4954923;28;20522;-65
2024/03/25 02:32:12;;;;;;;9.40;2.72;;;;;;;;;;4951961;28;20061;-66
2024/03/25 02:34:46;;;;;;;4.57;2.97;;;;;;;;;;4956142;28;20499;-65
2024/03/25 02:37:12;;;;;;;8.25;2.80;;;;;;;;;;4955514;28;20050;-66
2024/03/25 02:39:39;;;;;;;6.57;2.72;;;;;;;;;;4958992;28;20035;-65
2024/03/25 02:42:05;;;;;;;4.80;2.50;;;;;;;;;;4956200;28;20055;-65
2024/03/25 02:44:32;;;;;;;6.18;2.42;;;;;;;;;;4957474;28;20051;-66
2024/03/25 02:46:58;;;;;;;7.43;2.67;;;;;;;;;;4956455;28;20051;-64
2024/03/25 02:49:24;;;;;;;3.58;2.47;;;;;;;;;;4955779;28;20043;-65
2024/03/25 02:51:50;;;;;;;6.20;2.90;;;;;;;;;;4946248;28;20065;-65
2024/03/25 02:54:16;;;;;;;5.45;3.13;;;;;;;;;;4953448;28;20039;-65
2024/03/25 02:56:43;;;;;;;5.95;2.83;;;;;;;;;;4956379;28;20055;-65
2024/03/25 02:59:09;;;;;;;8.02;2.65;;;;;;;;;;4959674;28;20039;-65
2024/03/25 03:01:35;;;;;;;6.55;2.70;;;;;;;;;;4958242;28;20050;-65
2024/03/25 03:04:01;;;;;;;6.25;2.50;;;;;;;;;;4949839;28;20035;-67
2024/03/25 03:06:27;;;;;;;11.48;3.17;;;;;;;;;;4953569;28;20048;-66
2024/03/25 03:08:53;;;;;;;4.35;2.42;;;;;;;;;;4954948;28;20047;-64
2024/03/25 03:11:19;;;;;;;6.00;2.30;;;;;;;;;;4952985;28;20043;-65
2024/03/25 03:13:46;;;;;;;6.72;2.45;;;;;;;;;;4953066;28;20053;-65
2024/03/25 03:16:12;;;;;;;5.25;2.45;;;;;;;;;;4952068;28;20031;-65
2024/03/25 03:18:39;;;;;;;7.60;2.42;;;;;;;;;;4953992;28;20043;-65
2024/03/25 03:21:05;;;;;;;9.07;2.90;;;;;;;;;;4952277;28;20054;-65
2024/03/25 03:23:32;;;;;;;7.80;2.78;;;;;;;;;;4959037;28;20051;-65
2024/03/25 03:25:59;;;;;;;4.47;2.67;;;;;;;;;;4952031;28;20062;-65
2024/03/25 03:28:25;;;;;;;6.60;2.67;;;;;;;;;;4953447;28;20499;-63
2024/03/25 03:30:51;;;;;;;7.20;2.92;;;;;;;;;;4952512;28;20066;-66
2024/03/25 03:33:18;;;;;;;6.30;2.83;;;;;;;;;;4955871;28;20453;-66
2024/03/25 03:35:44;;;;;;;6.97;2.63;;;;;;;;;;4955550;28;20519;-65
2024/03/25 03:38:10;;;;;;;6.47;2.20;;;;;;;;;;4953466;28;20495;-65
2024/03/25 03:40:36;;;;;;;6.82;2.67;;;;;;;;;;4955298;28;20392;-65
2024/03/25 03:43:02;;;;;;;5.63;2.53;;;;;;;;;;4956339;28;20051;-66
2024/03/25 03:45:33;;;;;;;5.97;2.65;;;;;;;;;;4954915;28;20043;-65
2024/03/25 03:47:59;;;;;;;5.70;2.90;;;;;;;;;;4957002;28;20055;-66
2024/03/25 03:50:25;;;;;;;5.60;2.92;;;;;;;;;;4955007;28;20047;-65
2024/03/25 03:52:51;;;;;;;10.63;3.42;;;;;;;;;;4955979;28;20058;-65
2024/03/25 03:55:19;;;;;;;6.45;2.70;;;;;;;;;;4949822;28;20042;-65
2024/03/25 03:57:45;;;;;;;10.57;3.45;;;;;;;;;;4957781;28;20042;-65
2024/03/25 04:00:13;;;;;;;8.00;3.28;;;;;;;;;;4956614;28;20678;-65
2024/03/25 04:02:39;;;;;;;5.25;2.47;;;;;;;;;;4956666;28;20423;-65
2024/03/25 04:05:06;;;;;;;6.97;2.60;;;;;;;;;;4955803;28;20042;-65
2024/03/25 04:07:32;;;;;;;7.47;3.30;;;;;;;;;;4953945;28;20054;-65
2024/03/25 04:09:59;;;;;;;6.20;3.33;;;;;;;;;;4965810;28;20056;-65
2024/03/25 04:12:26;;;;;;;10.73;3.40;;;;;;;;;;4952928;28;20050;-66
2024/03/25 04:14:55;;;;;;;8.23;3.50;;;;;;;;;;4948631;28;20047;-65
2024/03/25 04:17:21;;;;;;;7.97;3.83;;;;;;;;;;4953795;28;20051;-66
2024/03/25 04:19:51;;;;;;;13.70;4.18;;;;;;;;;;4954282;28;20507;-65
2024/03/25 04:22:17;;;;;;;15.50;4.55;;;;;;;;;;4951605;28;20055;-64
2024/03/25 04:24:44;;;;;;;10.68;5.22;;;;;;;;;;4952493;28;20078;-65
2024/03/25 04:27:10;;;;;;;10.98;4.63;;;;;;;;;;4952716;28;20065;-66
2024/03/25 04:29:36;;;;;;;12.82;5.95;;;;;;;;;;4957024;28;20047;-65
2024/03/25 04:32:02;;;;;;;13.48;5.68;;;;;;;;;;4953868;28;20537;-65
2024/03/25 04:34:29;;;;;;;13.25;5.32;;;;;;;;;;4954062;28;20062;-66
2024/03/25 04:36:56;;;;;;;12.60;5.30;;;;;;;;;;4951275;28;20051;-67
2024/03/25 04:39:22;;;;;;;13.80;5.68;;;;;;;;;;4953043;28;20475;-66
2024/03/25 04:41:48;;;;;;;13.48;5.55;;;;;;;;;;4957748;28;20038;-66
2024/03/25 04:44:15;;;;;;;13.10;5.20;;;;;;;;;;4955441;28;20035;-65
2024/03/25 04:46:41;;;;;;;11.77;5.25;;;;;;;;;;4955062;28;20157;-66
2024/03/25 04:49:07;;;;;;;9.13;4.50;;;;;;;;;;4939533;28;20054;-66
2024/03/25 04:51:33;;;;;;;9.40;4.50;;;;;;;;;;4957164;28;20046;-67
2024/03/25 04:53:59;;;;;;;11.48;4.13;;;;;;;;;;4951746;28;20051;-66
2024/03/25 04:56:25;;;;;;;11.23;4.47;;;;;;;;;;4955405;28;20495;-66
2024/03/25 04:58:52;;;;;;;10.13;4.10;;;;;;;;;;4954243;28;20043;-65
2024/03/25 05:01:18;;;;;;;8.13;4.03;;;;;;;;;;4955929;28;20050;-65
2024/03/25 05:03:44;;;;;;;11.45;4.40;;;;;;;;;;4952527;28;20043;-66
2024/03/25 05:06:11;;;;;;;8.23;3.88;;;;;;;;;;4951516;28;20496;-65
2024/03/25 05:08:37;;;;;;;8.80;3.72;;;;;;;;;;4955022;28;20054;-66
2024/03/25 05:11:03;;;;;;;9.27;4.07;;;;;;;;;;4951701;28;20419;-66
2024/03/25 05:13:29;;;;;;;8.18;3.35;;;;;;;;;;4952241;28;20066;-66
2024/03/25 05:15:55;;;;;;;8.20;3.85;;;;;;;;;;4962216;28;20031;-66
2024/03/25 05:18:21;;;;;;;9.15;3.47;;;;;;;;;;4956131;28;20031;-66
2024/03/25 05:20:47;;;;;;;9.75;3.50;;;;;;;;;;4951867;28;20035;-65
2024/03/25 05:23:13;;;;;;;11.18;4.50;;;;;;;;;;4953935;28;20039;-66
2024/03/25 05:25:40;;;;;;;7.70;3.60;;;;;;;;;;4955792;28;20058;-65
2024/03/25 05:28:07;;;;;;;7.55;3.95;;;;;;;;;;4957144;28;20054;-66
2024/03/25 05:30:33;;;;;;;9.02;3.03;;;;;;;;;;4956421;28;20055;-65
2024/03/25 05:32:59;;;;;;;6.90;3.20;;;;;;;;;;4955361;28;20058;-66
2024/03/25 05:35:25;;;;;;;7.50;2.85;;;;;;;;;;4938078;29;20043;-66
2024/03/25 05:37:51;;;;;;;8.63;2.95;;;;;;;;;;4955886;28;20046;-65
2024/03/25 05:40:17;;;;;;;5.93;2.97;;;;;;;;;;4958009;28;20043;-65
2024/03/25 05:42:46;;;;;;;11.00;3.38;;;;;;;;;;4955439;28;20042;-66
2024/03/25 05:45:13;;;;;;;9.93;3.03;;;;;;;;;;4955097;28;20047;-65
2024/03/25 05:47:39;;;;;;;4.82;2.60;;;;;;;;;;4955270;28;20483;-66
2024/03/25 05:50:07;;;;;;;9.35;3.25;;;;;;;;;;4974512;22;20054;-60
2024/03/25 05:52:33;;;;;;;4.72;2.95;;;;;;;;;;4975342;28;20050;-60
2024/03/25 05:55:00;;;;;;;7.65;3.38;;;;;;;;;;4976796;28;20410;-59
2024/03/25 05:57:26;;;;;;;11.30;3.47;;;;;;;;;;4973297;28;20055;-60
2024/03/25 05:59:52;;;;;;;11.50;4.28;;;;;;;;;;4978405;28;20063;-61
2024/03/25 06:02:18;;;;;;;8.35;3.60;;;;;;;;;;4969242;28;20050;-60
2024/03/25 06:04:44;;;;;;;13.48;3.63;;;;;;;;;;4968136;28;20505;-61
2024/03/25 06:07:10;;;;;;;11.98;3.95;;;;;;;;;;4972690;28;20046;-62
2024/03/25 06:09:36;;;;;;;9.05;3.45;;;;;;;;;;4974065;28;20069;-63
2024/03/25 06:12:02;;;;;;;11.65;4.13;;;;;;;;;;4971031;28;20054;-62
2024/03/25 06:14:29;;;;;;;11.35;4.07;;;;;;;;;;4970928;28;20059;-64
2024/03/25 06:16:55;;;;;;;9.95;3.55;;;;;;;;;;4959366;28;20059;-63
2024/03/25 06:19:21;;;;;;;5.20;3.15;;;;;;;;;;4972685;28;20047;-63
2024/03/25 06:21:47;;;;;;;10.32;3.50;;;;;;;;;;4968722;28;20486;-63
2024/03/25 06:24:13;;;;;;;10.25;3.22;;;;;;;;;;4966951;28;20054;-64
2024/03/25 06:26:39;;;;;;;5.28;3.22;;;;;;;;;;4990102;28;20042;-63
2024/03/25 06:29:05;;;;;;;7.25;3.42;;;;;;;;;;4974036;28;20042;-63
2024/03/25 06:34:21;;;;;;;9.40;3.45;;;;;;;;;;4957662;28;20046;-62
2024/03/25 06:36:48;;;;;;;9.35;3.22;;;;;;;;;;4954804;28;20043;-62
2024/03/25 06:39:15;;;;;;;10.18;3.67;;;;;;;;;;4988044;28;20070;-61
2024/03/25 06:41:42;;;;;;;9.18;4.25;;;;;;;;;;4961440;28;20447;-62
2024/03/25 06:44:09;;;;;;;7.55;2.92;;;;;;;;;;4965233;28;20055;-62
2024/03/25 06:46:35;;;;;;;6.35;3.00;;;;;;;;;;4956643;28;20047;-63
2024/03/25 06:49:01;;;;;;;8.60;3.53;;;;;;;;;;4960113;28;20050;-62
2024/03/25 06:51:27;;;;;;;11.05;4.30;;;;;;;;;;4964787;28;20072;-63
2024/03/25 06:53:54;;;;;;;7.20;3.35;;;;;;;;;;4974945;28;20050;-62
2024/03/25 06:56:20;;;;;;;6.68;3.00;;;;;;;;;;4959924;28;20518;-63
2024/03/25 06:58:46;;;;;;;7.85;3.60;;;;;;;;;;4960546;28;20043;-65
2024/03/25 07:01:12;;;;;;;6.43;2.85;;;;;;;;;;4964672;28;20066;-64
2024/03/25 07:03:39;;;;;;;5.60;3.00;;;;;;;;;;4965624;28;20038;-63
2024/03/25 07:06:05;;;;;;;8.75;3.13;;;;;;;;;;4963891;28;20043;-64
2024/03/25 07:08:32;;;;;;;9.15;2.80;;;;;;;;;;4960602;28;20043;-63
2024/03/25 07:10:58;;;;;;;9.25;3.47;;;;;;;;;;4965282;28;20047;-63
2024/03/25 07:13:26;;;;;;;8.10;3.03;;;;;;;;;;4964114;28;20526;-64
2024/03/25 07:15:52;;;;;;;11.30;3.60;;;;;;;;;;4965834;28;20049;-62
2024/03/25 07:18:18;;;;;;;7.78;3.47;;;;;;;;;;4968374;28;20351;-63
2024/03/25 07:20:44;;;;;;;9.95;3.25;;;;;;;;;;4965374;28;20046;-63
2024/03/25 07:23:11;;;;;;;10.35;2.90;;;;;;;;;;4960668;28;20034;-64
2024/03/25 07:25:37;;;;;;;9.40;3.35;;;;;;;;;;4964354;28;20050;-63
2024/03/25 07:28:04;;;;;;;8.95;3.50;;;;;;;;;;4968391;28;20084;-63
2024/03/25 07:30:30;;;;;;;8.48;3.45;;;;;;;;;;4972803;28;20054;-62
2024/03/25 07:32:57;;;;;;;6.97;3.03;;;;;;;;;;4972097;28;20038;-62
2024/03/25 07:35:24;;;;;;;8.05;3.15;;;;;;;;;;4974079;28;20034;-63
2024/03/25 07:37:51;;;;;;;10.00;2.85;;;;;;;;;;4974052;28;20038;-64
2024/03/25 07:40:18;;;;;;;9.23;3.20;;;;;;;;;;4973787;28;20051;-63
2024/03/25 07:42:44;;;;;;;10.00;3.28;;;;;;;;;;4975449;28;20050;-63
2024/03/25 07:45:11;;;;;;;12.30;3.60;;;;;;;;;;4969368;28;20498;-63
2024/03/25 07:47:37;;;;;;;5.93;2.97;;;;;;;;;;4962837;28;20419;-64
2024/03/25 07:50:05;;;;;;;9.20;3.08;;;;;;;;;;4970996;28;20081;-62
2024/03/25 07:52:31;;;;;;;9.95;3.30;;;;;;;;;;4973567;28;20046;-63
2024/03/25 07:54:58;;;;;;;7.65;3.00;;;;;;;;;;4971525;28;20054;-63
2024/03/25 07:57:24;;;;;;;12.30;4.13;;;;;;;;;;4972429;28;20487;-64
2024/03/25 07:59:50;;;;;;;15.40;3.65;;;;;;;;;;4967278;28;20062;-61
2024/03/25 08:02:16;;;;;;;9.77;3.35;;;;;;;;;;4966781;28;20050;-62
2024/03/25 08:04:42;;;;;;;9.52;3.50;;;;;;;;;;4971395;28;20054;-63
2024/03/25 08:07:08;;;;;;;8.27;3.53;;;;;;;;;;4969047;28;20038;-63
2024/03/25 08:09:34;;;;;;;7.95;3.17;;;;;;;;;;4971751;28;20061;-62
2024/03/25 08:12:00;;;;;;;6.93;3.10;;;;;;;;;;4970385;28;20664;-63
2024/03/25 08:14:26;;;;;;;7.93;2.85;;;;;;;;;;4955973;28;20058;-63
2024/03/25 08:16:52;;;;;;;8.70;3.03;;;;;;;;;;4966038;28;20050;-62
2024/03/25 08:19:19;;;;;;;10.40;3.78;;;;;;;;;;4970213;28;20046;-62
2024/03/25 08:21:45;;;;;;;10.13;3.53;;;;;;;;;;4968931;28;20031;-62
2024/03/25 08:24:11;;;;;;;7.90;3.10;;;;;;;;;;4965653;28;20500;-62
2024/03/25 08:26:38;;;;;;;9.57;2.80;;;;;;;;;;4955180;28;20038;-62
2024/03/25 08:29:04;;;;;;;9.95;3.28;;;;;;;;;;4970813;28;20047;-63
2024/03/25 08:31:30;;;;;;;10.45;2.75;;;;;;;;;;4968266;28;20045;-63
2024/03/25 08:33:56;;;;;;;7.30;3.47;;;;;;;;;;4971619;28;20054;-64
2024/03/25 08:36:23;;;;;;;11.20;3.15;;;;;;;;;;4969156;28;20051;-63
2024/03/25 08:38:50;;;;;;;15.50;3.53;;;;;;;;;;4969937;28;20038;-64
2024/03/25 08:41:16;;;;;;;7.95;3.58;;;;;;;;;;4969083;28;20035;-64
2024/03/25 08:43:42;;;;;;;9.40;4.05;;;;;;;;;;4969224;28;20045;-63
2024/03/25 08:46:08;;;;;;;7.30;3.20;;;;;;;;;;4968425;28;20058;-62
2024/03/25 08:48:34;;;;;;;7.90;3.10;;;;;;;;;;4970249;28;20411;-63
2024/03/25 08:51:00;;;;;;;9.05;3.20;;;;;;;;;;4968544;28;20050;-62
2024/03/25 08:53:26;;;;;;;6.00;3.22;;;;;;;;;;4972062;28;20065;-64
2024/03/25 08:55:52;;;;;;;5.95;2.75;;;;;;;;;;4976890;28;20058;-63
2024/03/25 08:58:18;;;;;;;13.38;5.65;;;;;;;;;;4976064;28;20042;-62
2024/03/25 09:00:44;;;;;;;8.20;3.13;;;;;;;;;;4971797;28;20499;-62
2024/03/25 09:03:10;;;;;;;6.68;3.50;;;;;;;;;;4974328;28;20037;-64
2024/03/25 09:05:40;;;;;;;8.82;3.08;;;;;;;;;;4975393;28;20054;-63
2024/03/25 09:08:11;;;;;;;15.75;4.38;;;;;;;;;;4972596;28;20031;-63
2024/03/25 09:13:23;;;;;;;9.20;4.25;;;;;;;;;;4969186;28;20530;-64
2024/03/25 09:15:50;;;;;;;9.77;4.40;;;;;;;;;;4973150;28;20429;-62
2024/03/25 09:18:16;;;;;;;7.93;3.15;;;;;;;;;;4969717;28;20042;-63
2024/03/25 09:20:44;;;;;;;7.60;2.88;;;;;;;;;;4965740;28;20062;-63
2024/03/25 09:23:10;;;;;;;13.68;3.55;;;;;;;;;;4971411;28;20107;-63
2024/03/25 09:25:36;;;;;;;12.48;3.08;;;;;;;;;;4971060;28;20050;-64
2024/03/25 09:28:02;;;;;;;9.90;3.40;;;;;;;;;;4973950;28;20050;-64
2024/03/25 09:30:28;;;;;;;7.40;2.90;;;;;;;;;;4976003;28;20047;-63
2024/03/25 09:32:55;;;;;;;7.97;2.85;;;;;;;;;;4974468;28;20054;-63
2024/03/25 09:35:21;;;;;;;6.03;2.50;;;;;;;;;;4977222;28;20051;-63
2024/03/25 09:37:47;;;;;;;8.35;2.70;;;;;;;;;;4967344;28;20046;-63
2024/03/25 09:40:14;;;;;;;10.88;3.00;;;;;;;;;;4969198;28;20545;-63
2024/03/25 09:42:40;;;;;;;6.90;2.80;;;;;;;;;;4973335;28;20035;-64
2024/03/25 09:45:08;;;;;;;7.43;2.50;;;;;;;;;;4969931;28;20046;-64
2024/03/25 09:47:34;;;;;;;5.43;2.85;;;;;;;;;;4969207;28;20038;-64
2024/03/25 09:50:04;;;;;;;7.40;2.75;;;;;;;;;;4973463;28;20039;-63
2024/03/25 09:52:30;;;;;;;6.40;2.80;;;;;;;;;;4968980;28;20049;-64
2024/03/25 09:54:56;;;;;;;5.07;2.40;;;;;;;;;;4974994;28;20050;-64
2024/03/25 09:57:23;;;;;;;7.00;2.85;;;;;;;;;;4969560;28;20411;-67
2024/03/25 09:59:50;;;;;;;7.43;2.78;;;;;;;;;;4971755;28;20048;-64
2024/03/25 10:02:18;;;;;;;5.28;2.63;;;;;;;;;;4969452;28;20040;-64
2024/03/25 10:04:48;;;;;;;6.95;2.90;;;;;;;;;;4969294;28;20057;-63
2024/03/25 10:07:24;;;;;;;10.05;4.15;;;;;;;;;;4971071;28;20161;-63
2024/03/25 10:09:51;;;;;;;8.75;3.00;;;;;;;;;;4971523;28;20047;-63
2024/03/25 10:12:17;;;;;;;9.48;3.28;;;;;;;;;;4970620;28;20027;-64
2024/03/25 10:14:43;;;;;;;4.13;2.70;;;;;;;;;;4974683;28;20451;-63
2024/03/25 10:17:10;;;;;;;4.35;2.40;;;;;;;;;;4964099;28;20419;-64
2024/03/25 10:19:36;;;;;;;8.73;2.75;;;;;;;;;;4968203;28;20035;-63
2024/03/25 10:22:07;;;;;;;14.52;3.10;;;;;;;;;;4971388;28;20053;-63
2024/03/25 10:24:46;;;;;;;10.65;2.42;;;;;;;;;;4969580;28;20058;-64
2024/03/25 10:27:23;;;;;;;8.85;2.78;;;;;;;;;;4971384;28;20050;-63
2024/03/25 10:29:55;;;;;;;30.40;3.80;;;;;;;;;;4971505;28;20043;-64
2024/03/25 10:32:24;;;;;;;12.70;2.50;;;;;;;;;;4971866;28;20490;-64
2024/03/25 10:34:51;;;;;;;9.75;2.60;;;;;;;;;;4976342;28;20050;-63
2024/03/25 10:37:20;;;;;;;8.90;2.55;;;;;;;;;;4964517;28;20043;-64
2024/03/25 10:39:50;;;;;;;5.63;2.00;;;;;;;;;;4973905;28;20047;-63
2024/03/25 10:42:21;;;;;;;12.05;2.50;;;;;;;;;;4963443;28;20248;-63
2024/03/25 10:44:47;;;;;;;4.40;2.50;;;;;;;;;;4974301;28;20061;-63
2024/03/25 10:47:22;;;;;;;4.30;2.15;;;;;;;;;;4971264;28;20039;-63
2024/03/25 10:49:56;;;;;;;9.30;2.72;;;;;;;;;;4973050;28;20038;-62
2024/03/25 10:52:24;;;;;;;3.63;2.30;;;;;;;;;;4969364;28;20042;-64
2024/03/25 10:54:50;;;;;;;5.25;2.90;;;;;;;;;;4972881;28;20062;-62
2024/03/25 10:57:16;;;;;;;5.80;2.58;;;;;;;;;;4969892;28;20039;-63
2024/03/25 10:59:43;;;;;;;6.50;2.08;;;;;;;;;;4971856;28;20038;-64
2024/03/25 11:02:10;;;;;;;5.97;2.13;;;;;;;;;;4967215;28;20039;-64
2024/03/25 11:04:37;;;;;;;5.07;2.10;;;;;;;;;;4973840;28;20038;-63
2024/03/25 11:07:33;;;;;;;6.90;2.50;;;;;;;;;;4972050;28;20054;-63
2024/03/25 11:10:06;;;;;;;5.78;2.10;;;;;;;;;;4967859;28;20081;-63
2024/03/25 11:12:37;;;;;;;3.63;2.00;;;;;;;;;;4971323;28;20050;-63
2024/03/25 11:15:05;;;;;;;13.40;2.53;;;;;;;;;;4973214;28;20671;-63
2024/03/25 11:17:32;;;;;;;4.40;2.00;;;;;;;;;;4972348;28;20050;-63
2024/03/25 11:20:12;;;;;;;7.50;2.08;;;;;;;;;;4973707;28;20422;-63
2024/03/25 11:22:51;;;;;;;6.90;2.20;;;;;;;;;;4967514;28;20039;-63
2024/03/25 11:25:20;;;;;;;4.13;2.20;;;;;;;;;;4972067;28;20047;-62
2024/03/25 11:27:47;;;;;;;5.20;3.33;;;;;;;;;;4972265;28;20050;-63
2024/03/25 11:30:14;;;;;;;4.82;2.13;;;;;;;;;;4963967;28;20050;-63
2024/03/25 11:32:46;;;;;;;6.53;2.05;;;;;;;;;;4970976;28;20047;-63
2024/03/25 11:35:13;;;;;;;5.57;2.88;;;;;;;;;;4972717;28;20050;-64
2024/03/25 11:37:41;;;;;;;5.18;2.53;;;;;;;;;;4970540;28;20066;-63
2024/03/25 11:40:11;;;;;;;9.52;3.40;;;;;;;;;;4964662;28;20038;-63
2024/03/25 11:42:42;;;;;;;5.25;2.70;;;;;;;;;;4976782;28;20042;-64
2024/03/25 11:45:17;;;;;;;4.78;2.35;;;;;;;;;;4966045;28;20521;-64
2024/03/25 11:47:45;;;;;;;5.25;2.25;;;;;;;;;;4967719;28;20442;-63
2024/03/25 11:50:13;;;;;;;10.77;2.92;;;;;;;;;;4971413;28;20499;-64
2024/03/25 11:52:40;;;;;;;5.10;2.00;;;;;;;;;;4973596;28;20046;-65
2024/03/25 11:55:08;;;;;;;3.15;1.95;;;;;;;;;;4973979;28;20059;-64
2024/03/25 11:57:39;;;;;;;5.13;1.95;;;;;;;;;;4970195;28;20030;-64
2024/03/25 12:00:13;;;;;;;4.53;1.98;;;;;;;;;;4968102;28;20062;-64
2024/03/25 12:02:45;;;;;;;5.67;2.30;;;;;;;;;;4968911;28;20388;-64
2024/03/25 12:05:14;;;;;;;5.35;2.40;;;;;;;;;;4971711;28;20318;-63
2024/03/25 12:07:40;;;;;;;4.90;2.17;;;;;;;;;;4968636;28;20035;-64
2024/03/25 12:12:51;;;;;;;7.88;2.22;;;;;;;;;;4970813;28;20039;-65
2024/03/25 12:15:21;;;;;;;4.35;2.28;;;;;;;;;;4968577;28;20055;-64
2024/03/25 12:17:48;;;;;;;4.45;2.38;;;;;;;;;;4965791;28;20039;-64
2024/03/25 12:20:16;;;;;;;5.18;2.28;;;;;;;;;;4966462;28;20054;-64
2024/03/25 12:22:44;;;;;;;4.55;2.00;;;;;;;;;;4968306;28;20525;-64
2024/03/25 12:25:10;;;;;;;7.15;2.00;;;;;;;;;;4971409;28;20503;-67
2024/03/25 12:27:40;;;;;;;7.03;2.42;;;;;;;;;;4982181;23;20061;31
2024/03/25 12:30:08;;;;;;;4.88;2.25;;;;;;;;;;4945052;28;20141;-64
2024/03/25 12:32:44;;;;;;;3.33;1.77;;;;;;;;;;4952362;28;20054;-64
2024/03/25 12:35:18;;;;;;;6.95;2.72;;;;;;;;;;4956867;28;20051;-63
2024/03/25 12:37:47;;;;;;;12.02;5.22;;;;;;;;;;4950500;28;20539;-64
2024/03/25 12:40:25;;;;;;;9.40;4.25;;;;;;;;;;4935134;29;20059;-64
2024/03/25 12:42:52;;;;;;;6.97;2.90;;;;;;;;;;4935733;29;20415;-64
2024/03/25 12:45:23;;;;;;;4.35;1.80;;;;;;;;;;4936833;29;20423;-63
2024/03/25 12:47:50;;;;;;;11.40;4.00;;;;;;;;;;4933344;28;20054;-64
2024/03/25 12:50:16;;;;;;;9.68;3.28;;;;;;;;;;4926653;29;20052;-63
2024/03/25 12:52:42;;;;;;;4.07;1.92;;;;;;;;;;4936072;29;20054;-64
2024/03/25 12:55:09;;;;;;;5.03;2.10;;;;;;;;;;4935540;29;20423;-64
2024/03/25 12:57:35;;;;;;;4.25;2.00;;;;;;;;;;4931721;29;20047;-63
2024/03/25 13:00:04;;;;;;;4.43;1.83;;;;;;;;;;4932492;28;20055;-64
2024/03/25 13:02:31;;;;;;;6.00;1.80;;;;;;;;;;4932502;29;20046;-64
2024/03/25 13:04:57;;;;;;;4.40;1.80;;;;;;;;;;4934020;29;20397;-65
2024/03/25 13:07:23;;;;;;;2.67;1.55;;;;;;;;;;4929454;29;20036;-64
2024/03/25 13:09:49;;;;;;;5.30;1.92;;;;;;;;;;4932434;29;20051;-64
2024/03/25 13:12:16;;;;;;;3.75;1.80;;;;;;;;;;4932913;28;20048;-65
2024/03/25 13:14:42;;;;;;;4.25;1.70;;;;;;;;;;4935031;29;20608;-65
2024/03/25 13:17:08;;;;;;;4.85;2.30;;;;;;;;;;4947572;28;20035;-65
2024/03/25 13:19:34;;;;;;;3.65;1.30;;;;;;;;;;4935070;29;20052;-64
2024/03/25 13:22:00;;;;;;;5.00;1.88;;;;;;;;;;4947312;28;20035;-65
2024/03/25 13:24:26;;;;;;;2.85;1.17;;;;;;;;;;4933678;29;20052;-65
2024/03/25 13:26:53;;;;;;;4.10;1.50;;;;;;;;;;4936331;28;20459;-65
2024/03/25 13:29:19;;;;;;;3.70;1.80;;;;;;;;;;4946331;28;20048;-64
2024/03/25 13:31:45;;;;;;;3.50;1.95;;;;;;;;;;4948927;28;20047;-65
2024/03/25 13:34:11;;;;;;;1.52;0.90;;;;;;;;;;4934367;29;20519;-65
2024/03/25 13:36:37;;;;;;;1.98;0.90;;;;;;;;;;4935201;28;20059;-64
2024/03/25 13:39:03;;;;;;;5.80;1.30;;;;;;;;;;4928120;29;20051;-64
2024/03/25 13:41:30;;;;;;;2.05;1.10;;;;;;;;;;4949760;28;20047;-64
2024/03/25 13:43:56;;;;;;;2.90;1.00;;;;;;;;;;4937110;29;20051;-64
2024/03/25 13:46:22;;;;;;;3.28;1.13;;;;;;;;;;4937581;29;20515;-64
2024/03/25 13:48:48;;;;;;;1.52;1.00;;;;;;;;;;4938837;28;20066;-63
2024/03/25 13:51:14;;;;;;;2.40;0.90;;;;;;;;;;4934851;29;20052;-64
2024/03/25 13:53:40;;;;;;;3.17;1.00;;;;;;;;;;4935537;29;20048;-63
2024/03/25 13:56:06;;;;;;;1.88;0.80;;;;;;;;;;4935128;29;20504;-64
2024/03/25 13:58:32;;;;;;;0.90;0.80;;;;;;;;;;4935092;29;20059;-64
2024/03/25 14:00:58;;;;;;;3.25;1.27;;;;;;;;;;4949623;28;20051;-64
2024/03/25 14:03:24;;;;;;;1.20;1.05;;;;;;;;;;4937078;29;20043;-64
2024/03/25 14:05:51;;;;;;;2.63;0.80;;;;;;;;;;4933753;29;20067;-64
2024/03/25 14:08:17;;;;;;;7.32;1.20;;;;;;;;;;4933442;29;20031;-64
2024/03/25 14:10:44;;;;;;;1.65;1.20;;;;;;;;;;4932760;29;20515;-64
2024/03/25 14:13:10;;;;;;;2.58;1.10;;;;;;;;;;4936279;29;20075;-65
2024/03/25 14:15:36;;;;;;;1.63;1.10;;;;;;;;;;4935533;29;20078;-65
2024/03/25 14:18:02;;;;;;;2.38;1.30;;;;;;;;;;4933818;28;20047;-65
2024/03/25 14:20:29;;;;;;;2.90;1.30;;;;;;;;;;4950207;28;20047;-63
2024/03/25 14:22:55;;;;;;;1.38;1.25;;;;;;;;;;4934150;29;20032;-65
2024/03/25 14:25:21;;;;;;;2.58;1.20;;;;;;;;;;4935360;29;20066;-65
2024/03/25 14:27:47;;;;;;;3.08;1.27;;;;;;;;;;4938701;28;20051;-65
2024/03/25 14:30:14;;;;;;;1.55;1.20;;;;;;;;;;4936428;29;20069;-65
2024/03/25 14:32:41;;;;;;;3.28;1.63;;;;;;;;;;4937477;29;20051;-65
2024/03/25 14:35:07;;;;;;;4.43;1.40;;;;;;;;;;4938004;29;20516;-65
2024/03/25 14:37:33;;;;;;;2.08;1.50;;;;;;;;;;4947862;28;20052;-65
2024/03/25 14:39:59;;;;;;;3.85;1.50;;;;;;;;;;4948913;28;20042;-65
2024/03/25 14:42:25;;;;;;;2.60;1.35;;;;;;;;;;4933056;29;20039;-65
2024/03/25 14:44:51;;;;;;;4.82;2.53;;;;;;;;;;4934532;29;20035;-65
2024/03/25 14:47:17;;;;;;;6.70;4.43;;;;;;;;;;4942272;29;20035;-64